sensor_id;sensor_type;location;lat;lon;timestamp;temperature;humidity
13203;DHT22;6666;51.626;7.530;2023-11-19T00:00:54;10.00;99.90
13203;DHT22;6666;51.626;7.530;2023-11-19T00:03:22;10.00;99.90
13203;DHT22;6666;51.626;7.530;2023-11-19T00:05:51;10.00;99.90
13203;DHT22;6666;51.626;7.530;2023-11-19T00:08:19;10.00;99.90
13203;DHT22;6666;51.626;7.530;2023-11-19T00:10:47;9.90;99.90
13203;DHT22;6666;51.626;7.530;2023-11-19T00:13:15;10.00;99.90
13203;DHT22;6666;51.626;7.530;2023-11-19T00:15:44;10.00;99.90
13203;DHT22;6666;51.626;7.530;2023-11-19T00:18:14;10.00;99.90
13203;DHT22;6666;51.626;7.530;2023-11-19T00:20:42;10.10;99.90
13203;DHT22;6666;51.626;7.530;2023-11-19T00:23:11;10.10;99.90
13203;DHT22;6666;51.626;7.530;2023-11-19T00:25:39;10.10;99.90
13203;DHT22;6666;51.626;7.530;2023-11-19T00:28:07;10.10;99.90
13203;DHT22;6666;51.626;7.530;2023-11-19T00:30:35;10.10;99.90
13203;DHT22;6666;51.626;7.530;2023-11-19T00:33:05;10.10;99.90
13203;DHT22;6666;51.626;7.530;2023-11-19T00:35:33;10.10;99.90
13203;DHT22;6666;51.626;7.530;2023-11-19T00:38:01;10.10;99.90
13203;DHT22;6666;51.626;7.530;2023-11-19T00:40:30;10.10;99.90
13203;DHT22;6666;51.626;7.530;2023-11-19T00:42:58;10.10;99.90
13203;DHT22;6666;51.626;7.530;2023-11-19T00:45:27;10.10;99.90
13203;DHT22;6666;51.626;7.530;2023-11-19T00:47:56;10.10;99.90
13203;DHT22;6666;51.626;7.530;2023-11-19T00:50:27;10.20;99.90
13203;DHT22;6666;51.626;7.530;2023-11-19T00:53:00;10.30;99.90
13203;DHT22;6666;51.626;7.530;2023-11-19T00:55:30;10.50;99.90
13203;DHT22;6666;51.626;7.530;2023-11-19T00:57:58;10.50;99.90
13203;DHT22;6666;51.626;7.530;2023-11-19T01:00:26;10.50;99.90
13203;DHT22;6666;51.626;7.530;2023-11-19T01:02:54;10.50;99.90
13203;DHT22;6666;51.626;7.530;2023-11-19T01:05:22;10.50;99.90
13203;DHT22;6666;51.626;7.530;2023-11-19T01:07:52;10.50;99.90
13203;DHT22;6666;51.626;7.530;2023-11-19T01:10:21;10.60;99.90
13203;DHT22;6666;51.626;7.530;2023-11-19T01:12:49;10.60;99.90
13203;DHT22;6666;51.626;7.530;2023-11-19T01:15:17;10.60;99.90
13203;DHT22;6666;51.626;7.530;2023-11-19T01:17:46;10.70;99.90
13203;DHT22;6666;51.626;7.530;2023-11-19T01:20:18;10.80;99.90
13203;DHT22;6666;51.626;7.530;2023-11-19T01:22:47;10.70;99.90
13203;DHT22;6666;51.626;7.530;2023-11-19T01:25:18;10.90;99.90
13203;DHT22;6666;51.626;7.530;2023-11-19T01:27:47;10.80;99.90
13203;DHT22;6666;51.626;7.530;2023-11-19T01:30:15;10.90;99.90
13203;DHT22;6666;51.626;7.530;2023-11-19T01:32:44;10.90;99.90
13203;DHT22;6666;51.626;7.530;2023-11-19T01:35:12;11.00;99.90
13203;DHT22;6666;51.626;7.530;2023-11-19T01:37:41;11.00;99.90
13203;DHT22;6666;51.626;7.530;2023-11-19T01:40:10;11.00;99.90
13203;DHT22;6666;51.626;7.530;2023-11-19T01:42:40;11.10;99.90
13203;DHT22;6666;51.626;7.530;2023-11-19T01:45:09;11.10;99.90
13203;DHT22;6666;51.626;7.530;2023-11-19T01:47:37;11.10;99.90
13203;DHT22;6666;51.626;7.530;2023-11-19T01:50:07;11.20;99.90
13203;DHT22;6666;51.626;7.530;2023-11-19T01:52:36;11.20;99.90
13203;DHT22;6666;51.626;7.530;2023-11-19T01:55:07;11.20;99.90
13203;DHT22;6666;51.626;7.530;2023-11-19T01:57:37;11.20;99.90
13203;DHT22;6666;51.626;7.530;2023-11-19T02:00:10;11.20;99.90
13203;DHT22;6666;51.626;7.530;2023-11-19T02:02:40;11.20;99.90
13203;DHT22;6666;51.626;7.530;2023-11-19T02:05:09;11.20;99.90
13203;DHT22;6666;51.626;7.530;2023-11-19T02:07:38;11.30;99.90
13203;DHT22;6666;51.626;7.530;2023-11-19T02:10:07;11.30;99.90
13203;DHT22;6666;51.626;7.530;2023-11-19T02:12:40;11.30;99.90
13203;DHT22;6666;51.626;7.530;2023-11-19T02:15:12;11.40;99.90
13203;DHT22;6666;51.626;7.530;2023-11-19T02:17:40;11.40;99.90
13203;DHT22;6666;51.626;7.530;2023-11-19T02:20:10;11.40;99.90
13203;DHT22;6666;51.626;7.530;2023-11-19T02:22:43;11.50;99.90
13203;DHT22;6666;51.626;7.530;2023-11-19T02:25:17;11.50;99.90
13203;DHT22;6666;51.626;7.530;2023-11-19T02:27:53;11.60;99.90
13203;DHT22;6666;51.626;7.530;2023-11-19T02:30:23;11.60;99.90
13203;DHT22;6666;51.626;7.530;2023-11-19T02:32:53;11.60;99.90
13203;DHT22;6666;51.626;7.530;2023-11-19T02:35:24;11.60;99.90
13203;DHT22;6666;51.626;7.530;2023-11-19T02:37:52;11.60;99.90
13203;DHT22;6666;51.626;7.530;2023-11-19T02:40:21;11.60;99.90
13203;DHT22;6666;51.626;7.530;2023-11-19T02:42:53;11.60;99.90
13203;DHT22;6666;51.626;7.530;2023-11-19T02:45:22;11.60;99.90
13203;DHT22;6666;51.626;7.530;2023-11-19T02:47:51;11.60;99.90
13203;DHT22;6666;51.626;7.530;2023-11-19T02:50:20;11.60;99.90
13203;DHT22;6666;51.626;7.530;2023-11-19T02:52:54;11.60;99.90
13203;DHT22;6666;51.626;7.530;2023-11-19T02:55:25;11.60;99.90
13203;DHT22;6666;51.626;7.530;2023-11-19T02:57:56;11.60;99.90
13203;DHT22;6666;51.626;7.530;2023-11-19T03:00:26;11.60;99.90
13203;DHT22;6666;51.626;7.530;2023-11-19T03:03:02;11.70;99.90
13203;DHT22;6666;51.626;7.530;2023-11-19T03:05:45;11.70;99.90
13203;DHT22;6666;51.626;7.530;2023-11-19T03:08:14;11.70;99.90
13203;DHT22;6666;51.626;7.530;2023-11-19T03:10:45;11.70;99.90
13203;DHT22;6666;51.626;7.530;2023-11-19T03:13:15;11.70;99.90
13203;DHT22;6666;51.626;7.530;2023-11-19T03:15:44;11.70;99.90
13203;DHT22;6666;51.626;7.530;2023-11-19T03:18:12;11.70;99.90
13203;DHT22;6666;51.626;7.530;2023-11-19T03:20:41;11.70;99.90
13203;DHT22;6666;51.626;7.530;2023-11-19T03:23:09;11.80;99.90
13203;DHT22;6666;51.626;7.530;2023-11-19T03:25:37;11.80;99.90
13203;DHT22;6666;51.626;7.530;2023-11-19T03:28:05;11.80;99.90
13203;DHT22;6666;51.626;7.530;2023-11-19T03:30:35;11.70;99.90
13203;DHT22;6666;51.626;7.530;2023-11-19T03:33:03;11.70;99.90
13203;DHT22;6666;51.626;7.530;2023-11-19T03:35:31;11.80;99.90
13203;DHT22;6666;51.626;7.530;2023-11-19T03:38:01;11.80;99.90
13203;DHT22;6666;51.626;7.530;2023-11-19T03:40:29;11.80;99.90
13203;DHT22;6666;51.626;7.530;2023-11-19T03:42:57;11.80;99.90
13203;DHT22;6666;51.626;7.530;2023-11-19T03:45:26;11.90;99.90
13203;DHT22;6666;51.626;7.530;2023-11-19T03:47:55;11.80;99.90
13203;DHT22;6666;51.626;7.530;2023-11-19T03:50:23;11.90;99.90
13203;DHT22;6666;51.626;7.530;2023-11-19T03:52:52;12.00;99.90
13203;DHT22;6666;51.626;7.530;2023-11-19T03:55:20;12.00;99.90
13203;DHT22;6666;51.626;7.530;2023-11-19T03:57:48;12.00;99.90
13203;DHT22;6666;51.626;7.530;2023-11-19T04:00:17;12.00;99.90
13203;DHT22;6666;51.626;7.530;2023-11-19T04:02:47;12.00;99.90
13203;DHT22;6666;51.626;7.530;2023-11-19T04:05:17;12.00;99.90
13203;DHT22;6666;51.626;7.530;2023-11-19T04:07:46;11.90;99.90
13203;DHT22;6666;51.626;7.530;2023-11-19T04:10:15;11.90;99.90
13203;DHT22;6666;51.626;7.530;2023-11-19T04:12:44;11.90;99.90
13203;DHT22;6666;51.626;7.530;2023-11-19T04:15:12;11.90;99.90
13203;DHT22;6666;51.626;7.530;2023-11-19T04:17:40;11.90;99.90
13203;DHT22;6666;51.626;7.530;2023-11-19T04:20:09;11.90;99.90
13203;DHT22;6666;51.626;7.530;2023-11-19T04:22:42;11.90;99.90
13203;DHT22;6666;51.626;7.530;2023-11-19T04:25:10;11.90;99.90
13203;DHT22;6666;51.626;7.530;2023-11-19T04:27:39;11.90;99.90
13203;DHT22;6666;51.626;7.530;2023-11-19T04:30:08;12.00;99.90
13203;DHT22;6666;51.626;7.530;2023-11-19T04:32:38;11.90;99.90
13203;DHT22;6666;51.626;7.530;2023-11-19T04:35:07;11.90;99.90
13203;DHT22;6666;51.626;7.530;2023-11-19T04:37:36;12.00;99.90
13203;DHT22;6666;51.626;7.530;2023-11-19T04:40:06;11.90;99.90
13203;DHT22;6666;51.626;7.530;2023-11-19T04:42:35;11.80;99.90
13203;DHT22;6666;51.626;7.530;2023-11-19T04:45:04;11.80;99.90
13203;DHT22;6666;51.626;7.530;2023-11-19T04:47:33;11.80;99.90
13203;DHT22;6666;51.626;7.530;2023-11-19T04:50:01;11.80;99.90
13203;DHT22;6666;51.626;7.530;2023-11-19T04:52:30;11.80;99.90
13203;DHT22;6666;51.626;7.530;2023-11-19T04:54:58;11.90;99.90
13203;DHT22;6666;51.626;7.530;2023-11-19T04:57:28;11.80;99.90
13203;DHT22;6666;51.626;7.530;2023-11-19T04:59:56;11.80;99.90
13203;DHT22;6666;51.626;7.530;2023-11-19T05:02:24;11.70;99.90
13203;DHT22;6666;51.626;7.530;2023-11-19T05:04:52;11.70;99.90
13203;DHT22;6666;51.626;7.530;2023-11-19T05:07:21;11.70;99.90
13203;DHT22;6666;51.626;7.530;2023-11-19T05:09:49;11.60;99.90
13203;DHT22;6666;51.626;7.530;2023-11-19T05:12:17;11.70;99.90
13203;DHT22;6666;51.626;7.530;2023-11-19T05:14:46;11.60;99.90
13203;DHT22;6666;51.626;7.530;2023-11-19T05:17:17;11.60;99.90
13203;DHT22;6666;51.626;7.530;2023-11-19T05:19:46;11.60;99.90
13203;DHT22;6666;51.626;7.530;2023-11-19T05:22:15;11.60;99.90
13203;DHT22;6666;51.626;7.530;2023-11-19T05:24:43;11.70;99.90
13203;DHT22;6666;51.626;7.530;2023-11-19T05:27:11;11.60;99.90
13203;DHT22;6666;51.626;7.530;2023-11-19T05:29:40;11.60;99.90
13203;DHT22;6666;51.626;7.530;2023-11-19T05:32:11;11.50;99.90
13203;DHT22;6666;51.626;7.530;2023-11-19T05:34:39;11.40;99.90
13203;DHT22;6666;51.626;7.530;2023-11-19T05:37:10;11.40;99.90
13203;DHT22;6666;51.626;7.530;2023-11-19T05:39:38;11.50;99.90
13203;DHT22;6666;51.626;7.530;2023-11-19T05:42:06;11.40;99.90
13203;DHT22;6666;51.626;7.530;2023-11-19T05:44:34;11.50;99.90
13203;DHT22;6666;51.626;7.530;2023-11-19T05:47:06;11.40;99.90
13203;DHT22;6666;51.626;7.530;2023-11-19T05:49:37;11.40;99.90
13203;DHT22;6666;51.626;7.530;2023-11-19T05:52:05;11.40;99.90
13203;DHT22;6666;51.626;7.530;2023-11-19T05:54:36;11.40;99.90
13203;DHT22;6666;51.626;7.530;2023-11-19T05:57:05;11.50;99.90
13203;DHT22;6666;51.626;7.530;2023-11-19T05:59:36;11.50;99.90
13203;DHT22;6666;51.626;7.530;2023-11-19T06:02:04;11.40;99.90
13203;DHT22;6666;51.626;7.530;2023-11-19T06:04:32;11.40;99.90
13203;DHT22;6666;51.626;7.530;2023-11-19T06:07:02;11.50;99.90
13203;DHT22;6666;51.626;7.530;2023-11-19T06:09:30;11.50;99.90
13203;DHT22;6666;51.626;7.530;2023-11-19T06:12:00;11.50;99.90
13203;DHT22;6666;51.626;7.530;2023-11-19T06:14:29;11.60;99.90
13203;DHT22;6666;51.626;7.530;2023-11-19T06:16:57;11.40;99.90
13203;DHT22;6666;51.626;7.530;2023-11-19T06:19:24;11.40;99.90
13203;DHT22;6666;51.626;7.530;2023-11-19T06:21:57;11.40;99.90
13203;DHT22;6666;51.626;7.530;2023-11-19T06:24:26;11.40;99.90
13203;DHT22;6666;51.626;7.530;2023-11-19T06:26:54;11.30;99.90
13203;DHT22;6666;51.626;7.530;2023-11-19T06:29:22;11.40;99.90
13203;DHT22;6666;51.626;7.530;2023-11-19T06:31:51;11.40;99.90
13203;DHT22;6666;51.626;7.530;2023-11-19T06:34:19;11.30;99.90
13203;DHT22;6666;51.626;7.530;2023-11-19T06:36:47;11.40;99.90
13203;DHT22;6666;51.626;7.530;2023-11-19T06:39:15;11.40;99.90
13203;DHT22;6666;51.626;7.530;2023-11-19T06:41:47;11.40;99.90
13203;DHT22;6666;51.626;7.530;2023-11-19T06:44:15;11.40;99.90
13203;DHT22;6666;51.626;7.530;2023-11-19T06:46:43;11.40;99.90
13203;DHT22;6666;51.626;7.530;2023-11-19T06:49:11;11.40;99.90
13203;DHT22;6666;51.626;7.530;2023-11-19T06:51:41;11.40;99.90
13203;DHT22;6666;51.626;7.530;2023-11-19T06:54:10;11.30;99.90
13203;DHT22;6666;51.626;7.530;2023-11-19T06:56:38;11.40;99.90
13203;DHT22;6666;51.626;7.530;2023-11-19T06:59:09;11.40;99.90
13203;DHT22;6666;51.626;7.530;2023-11-19T07:01:37;11.40;99.90
13203;DHT22;6666;51.626;7.530;2023-11-19T07:04:06;11.50;99.90
13203;DHT22;6666;51.626;7.530;2023-11-19T07:06:36;11.50;99.90
13203;DHT22;6666;51.626;7.530;2023-11-19T07:09:04;11.50;99.90
13203;DHT22;6666;51.626;7.530;2023-11-19T07:11:37;11.50;99.90
13203;DHT22;6666;51.626;7.530;2023-11-19T07:14:07;11.60;99.90
13203;DHT22;6666;51.626;7.530;2023-11-19T07:16:36;11.50;99.90
13203;DHT22;6666;51.626;7.530;2023-11-19T07:19:05;11.60;99.90
13203;DHT22;6666;51.626;7.530;2023-11-19T07:21:33;11.60;99.90
13203;DHT22;6666;51.626;7.530;2023-11-19T07:24:02;11.60;99.90
13203;DHT22;6666;51.626;7.530;2023-11-19T07:26:31;11.50;99.90
13203;DHT22;6666;51.626;7.530;2023-11-19T07:28:59;11.60;99.90
13203;DHT22;6666;51.626;7.530;2023-11-19T07:31:30;11.60;99.90
13203;DHT22;6666;51.626;7.530;2023-11-19T07:33:58;11.60;99.90
13203;DHT22;6666;51.626;7.530;2023-11-19T07:36:26;11.70;99.90
13203;DHT22;6666;51.626;7.530;2023-11-19T07:38:54;11.80;99.90
13203;DHT22;6666;51.626;7.530;2023-11-19T07:41:24;11.80;99.90
13203;DHT22;6666;51.626;7.530;2023-11-19T07:43:52;11.70;99.90
13203;DHT22;6666;51.626;7.530;2023-11-19T07:46:21;11.70;99.90
13203;DHT22;6666;51.626;7.530;2023-11-19T07:48:51;11.70;99.90
13203;DHT22;6666;51.626;7.530;2023-11-19T07:51:19;11.70;99.90
13203;DHT22;6666;51.626;7.530;2023-11-19T07:53:48;11.60;99.90
13203;DHT22;6666;51.626;7.530;2023-11-19T07:56:16;11.60;99.90
13203;DHT22;6666;51.626;7.530;2023-11-19T07:58:45;11.50;99.90
13203;DHT22;6666;51.626;7.530;2023-11-19T08:01:13;11.50;99.90
13203;DHT22;6666;51.626;7.530;2023-11-19T08:03:43;11.60;99.90
13203;DHT22;6666;51.626;7.530;2023-11-19T08:06:27;11.60;99.90
13203;DHT22;6666;51.626;7.530;2023-11-19T08:08:55;11.70;99.90
13203;DHT22;6666;51.626;7.530;2023-11-19T08:11:23;11.70;99.90
13203;DHT22;6666;51.626;7.530;2023-11-19T08:13:51;11.80;99.90
13203;DHT22;6666;51.626;7.530;2023-11-19T08:16:19;11.80;99.90
13203;DHT22;6666;51.626;7.530;2023-11-19T08:18:47;11.90;99.90
13203;DHT22;6666;51.626;7.530;2023-11-19T08:21:15;11.90;99.90
13203;DHT22;6666;51.626;7.530;2023-11-19T08:23:45;11.90;99.90
13203;DHT22;6666;51.626;7.530;2023-11-19T08:26:14;11.90;99.90
13203;DHT22;6666;51.626;7.530;2023-11-19T08:28:47;12.00;99.90
13203;DHT22;6666;51.626;7.530;2023-11-19T08:31:15;12.00;99.90
13203;DHT22;6666;51.626;7.530;2023-11-19T08:33:43;12.00;99.90
13203;DHT22;6666;51.626;7.530;2023-11-19T08:36:15;12.00;99.90
13203;DHT22;6666;51.626;7.530;2023-11-19T08:38:46;12.00;99.90
13203;DHT22;6666;51.626;7.530;2023-11-19T08:41:16;11.90;99.90
13203;DHT22;6666;51.626;7.530;2023-11-19T08:43:45;12.00;99.90
13203;DHT22;6666;51.626;7.530;2023-11-19T08:46:13;12.00;99.90
13203;DHT22;6666;51.626;7.530;2023-11-19T08:48:41;12.00;99.90
13203;DHT22;6666;51.626;7.530;2023-11-19T08:51:09;12.10;99.90
13203;DHT22;6666;51.626;7.530;2023-11-19T08:53:37;12.20;99.90
13203;DHT22;6666;51.626;7.530;2023-11-19T08:56:07;12.20;99.90
13203;DHT22;6666;51.626;7.530;2023-11-19T08:58:36;12.10;99.90
13203;DHT22;6666;51.626;7.530;2023-11-19T09:01:04;12.10;99.90
13203;DHT22;6666;51.626;7.530;2023-11-19T09:03:32;12.10;99.90
13203;DHT22;6666;51.626;7.530;2023-11-19T09:06:01;12.10;99.90
13203;DHT22;6666;51.626;7.530;2023-11-19T09:08:29;12.10;99.90
13203;DHT22;6666;51.626;7.530;2023-11-19T09:10:57;12.20;99.90
13203;DHT22;6666;51.626;7.530;2023-11-19T09:13:27;12.30;99.90
13203;DHT22;6666;51.626;7.530;2023-11-19T09:15:55;12.30;99.90
13203;DHT22;6666;51.626;7.530;2023-11-19T09:18:26;12.40;99.90
13203;DHT22;6666;51.626;7.530;2023-11-19T09:20:54;12.40;99.90
13203;DHT22;6666;51.626;7.530;2023-11-19T09:23:22;12.50;99.90
13203;DHT22;6666;51.626;7.530;2023-11-19T09:25:52;12.50;99.90
13203;DHT22;6666;51.626;7.530;2023-11-19T09:28:20;12.60;99.90
13203;DHT22;6666;51.626;7.530;2023-11-19T09:30:49;12.50;99.90
13203;DHT22;6666;51.626;7.530;2023-11-19T09:33:17;12.60;99.90
13203;DHT22;6666;51.626;7.530;2023-11-19T09:35:46;12.60;99.90
13203;DHT22;6666;51.626;7.530;2023-11-19T09:38:16;12.60;99.90
13203;DHT22;6666;51.626;7.530;2023-11-19T09:40:45;12.60;99.90
13203;DHT22;6666;51.626;7.530;2023-11-19T09:43:14;12.60;99.90
13203;DHT22;6666;51.626;7.530;2023-11-19T09:45:49;12.60;99.90
13203;DHT22;6666;51.626;7.530;2023-11-19T09:48:18;12.60;99.90
13203;DHT22;6666;51.626;7.530;2023-11-19T09:50:47;12.60;99.90
13203;DHT22;6666;51.626;7.530;2023-11-19T09:53:16;12.60;99.90
13203;DHT22;6666;51.626;7.530;2023-11-19T09:55:44;12.60;99.90
13203;DHT22;6666;51.626;7.530;2023-11-19T09:58:14;12.50;99.90
13203;DHT22;6666;51.626;7.530;2023-11-19T10:00:43;12.50;99.90
13203;DHT22;6666;51.626;7.530;2023-11-19T10:03:23;12.50;99.90
13203;DHT22;6666;51.626;7.530;2023-11-19T10:05:52;12.40;99.90
13203;DHT22;6666;51.626;7.530;2023-11-19T10:08:20;12.40;99.90
13203;DHT22;6666;51.626;7.530;2023-11-19T10:10:48;12.30;99.90
13203;DHT22;6666;51.626;7.530;2023-11-19T10:13:16;12.50;99.90
13203;DHT22;6666;51.626;7.530;2023-11-19T10:15:45;12.60;99.90
13203;DHT22;6666;51.626;7.530;2023-11-19T10:18:15;12.60;99.90
13203;DHT22;6666;51.626;7.530;2023-11-19T10:20:45;12.60;99.90
13203;DHT22;6666;51.626;7.530;2023-11-19T10:23:13;12.60;99.90
13203;DHT22;6666;51.626;7.530;2023-11-19T10:25:41;12.60;99.90
13203;DHT22;6666;51.626;7.530;2023-11-19T10:28:10;12.60;99.90
13203;DHT22;6666;51.626;7.530;2023-11-19T10:30:38;12.60;99.90
13203;DHT22;6666;51.626;7.530;2023-11-19T10:33:07;12.60;99.90
13203;DHT22;6666;51.626;7.530;2023-11-19T10:35:50;12.50;99.90
13203;DHT22;6666;51.626;7.530;2023-11-19T10:38:23;12.60;99.90
13203;DHT22;6666;51.626;7.530;2023-11-19T10:40:53;12.60;99.90
13203;DHT22;6666;51.626;7.530;2023-11-19T10:43:22;12.60;99.90
13203;DHT22;6666;51.626;7.530;2023-11-19T10:45:51;12.50;99.90
13203;DHT22;6666;51.626;7.530;2023-11-19T10:48:19;12.40;99.90
13203;DHT22;6666;51.626;7.530;2023-11-19T10:50:53;12.30;99.90
13203;DHT22;6666;51.626;7.530;2023-11-19T10:53:23;12.20;99.90
13203;DHT22;6666;51.626;7.530;2023-11-19T10:55:55;12.20;99.90
13203;DHT22;6666;51.626;7.530;2023-11-19T10:58:26;12.20;99.90
13203;DHT22;6666;51.626;7.530;2023-11-19T11:01:02;12.20;99.90
13203;DHT22;6666;51.626;7.530;2023-11-19T11:03:36;12.40;99.90
13203;DHT22;6666;51.626;7.530;2023-11-19T11:06:08;12.40;99.90
13203;DHT22;6666;51.626;7.530;2023-11-19T11:08:39;12.50;99.90
13203;DHT22;6666;51.626;7.530;2023-11-19T11:11:07;12.50;99.90
13203;DHT22;6666;51.626;7.530;2023-11-19T11:13:37;12.60;99.90
13203;DHT22;6666;51.626;7.530;2023-11-19T11:16:09;12.60;99.90
13203;DHT22;6666;51.626;7.530;2023-11-19T11:18:38;12.60;99.90
13203;DHT22;6666;51.626;7.530;2023-11-19T11:21:09;12.60;99.90
13203;DHT22;6666;51.626;7.530;2023-11-19T11:24:14;12.50;99.90
13203;DHT22;6666;51.626;7.530;2023-11-19T11:27:09;12.30;99.90
13203;DHT22;6666;51.626;7.530;2023-11-19T11:29:47;12.30;99.90
13203;DHT22;6666;51.626;7.530;2023-11-19T11:32:28;12.20;99.90
13203;DHT22;6666;51.626;7.530;2023-11-19T11:35:19;12.20;99.90
13203;DHT22;6666;51.626;7.530;2023-11-19T11:37:59;12.20;99.90
13203;DHT22;6666;51.626;7.530;2023-11-19T11:40:29;12.10;99.90
13203;DHT22;6666;51.626;7.530;2023-11-19T11:42:58;12.10;99.90
13203;DHT22;6666;51.626;7.530;2023-11-19T11:45:36;12.10;99.90
13203;DHT22;6666;51.626;7.530;2023-11-19T11:48:15;12.20;99.90
13203;DHT22;6666;51.626;7.530;2023-11-19T11:50:52;12.20;99.90
13203;DHT22;6666;51.626;7.530;2023-11-19T11:53:21;12.20;99.90
13203;DHT22;6666;51.626;7.530;2023-11-19T11:55:59;12.30;99.90
13203;DHT22;6666;51.626;7.530;2023-11-19T11:58:35;12.30;99.90
13203;DHT22;6666;51.626;7.530;2023-11-19T12:01:04;12.30;99.90
13203;DHT22;6666;51.626;7.530;2023-11-19T12:03:33;12.40;99.90
13203;DHT22;6666;51.626;7.530;2023-11-19T12:06:02;12.40;99.90
13203;DHT22;6666;51.626;7.530;2023-11-19T12:08:30;12.40;99.90
13203;DHT22;6666;51.626;7.530;2023-11-19T12:11:20;12.40;99.90
13203;DHT22;6666;51.626;7.530;2023-11-19T12:13:55;12.50;99.90
13203;DHT22;6666;51.626;7.530;2023-11-19T12:16:26;12.60;99.90
13203;DHT22;6666;51.626;7.530;2023-11-19T12:18:56;12.60;99.90
13203;DHT22;6666;51.626;7.530;2023-11-19T12:21:28;12.60;99.90
13203;DHT22;6666;51.626;7.530;2023-11-19T12:23:58;12.60;99.90
13203;DHT22;6666;51.626;7.530;2023-11-19T12:26:39;12.80;99.90
13203;DHT22;6666;51.626;7.530;2023-11-19T12:29:08;12.90;99.90
13203;DHT22;6666;51.626;7.530;2023-11-19T12:31:37;12.90;99.90
13203;DHT22;6666;51.626;7.530;2023-11-19T12:34:10;13.00;99.90
13203;DHT22;6666;51.626;7.530;2023-11-19T12:36:41;12.90;99.90
13203;DHT22;6666;51.626;7.530;2023-11-19T12:39:10;12.90;99.90
13203;DHT22;6666;51.626;7.530;2023-11-19T12:41:52;12.90;99.90
13203;DHT22;6666;51.626;7.530;2023-11-19T12:44:22;12.90;99.90
13203;DHT22;6666;51.626;7.530;2023-11-19T12:47:00;12.90;99.90
13203;DHT22;6666;51.626;7.530;2023-11-19T12:49:29;12.80;99.90
13203;DHT22;6666;51.626;7.530;2023-11-19T12:51:57;12.80;99.90
13203;DHT22;6666;51.626;7.530;2023-11-19T12:54:35;12.90;99.90
13203;DHT22;6666;51.626;7.530;2023-11-19T12:57:05;12.90;99.90
13203;DHT22;6666;51.626;7.530;2023-11-19T12:59:33;12.80;99.90
13203;DHT22;6666;51.626;7.530;2023-11-19T13:02:01;12.90;99.90
13203;DHT22;6666;51.626;7.530;2023-11-19T13:04:33;12.90;99.90
13203;DHT22;6666;51.626;7.530;2023-11-19T13:07:01;12.90;99.90
13203;DHT22;6666;51.626;7.530;2023-11-19T13:09:32;12.90;99.90
13203;DHT22;6666;51.626;7.530;2023-11-19T13:12:13;12.80;99.90
13203;DHT22;6666;51.626;7.530;2023-11-19T13:14:42;12.80;99.90
13203;DHT22;6666;51.626;7.530;2023-11-19T13:17:15;12.70;99.90
13203;DHT22;6666;51.626;7.530;2023-11-19T13:19:46;12.60;99.90
13203;DHT22;6666;51.626;7.530;2023-11-19T13:22:14;12.40;99.90
13203;DHT22;6666;51.626;7.530;2023-11-19T13:24:42;12.20;99.90
13203;DHT22;6666;51.626;7.530;2023-11-19T13:27:10;12.00;99.90
13203;DHT22;6666;51.626;7.530;2023-11-19T13:29:40;11.80;99.90
13203;DHT22;6666;51.626;7.530;2023-11-19T13:32:08;11.70;99.90
13203;DHT22;6666;51.626;7.530;2023-11-19T13:34:36;11.60;99.90
13203;DHT22;6666;51.626;7.530;2023-11-19T13:37:04;11.60;99.90
13203;DHT22;6666;51.626;7.530;2023-11-19T13:39:32;11.80;99.90
13203;DHT22;6666;51.626;7.530;2023-11-19T13:42:01;11.90;99.90
13203;DHT22;6666;51.626;7.530;2023-11-19T13:44:32;11.90;99.90
13203;DHT22;6666;51.626;7.530;2023-11-19T13:47:02;11.80;99.90
13203;DHT22;6666;51.626;7.530;2023-11-19T13:49:30;11.80;99.90
13203;DHT22;6666;51.626;7.530;2023-11-19T13:51:58;11.80;99.90
13203;DHT22;6666;51.626;7.530;2023-11-19T13:54:26;11.80;99.90
13203;DHT22;6666;51.626;7.530;2023-11-19T13:56:55;11.90;99.90
13203;DHT22;6666;51.626;7.530;2023-11-19T13:59:25;11.80;99.90
13203;DHT22;6666;51.626;7.530;2023-11-19T14:01:53;11.80;99.90
13203;DHT22;6666;51.626;7.530;2023-11-19T14:04:23;11.80;99.90
13203;DHT22;6666;51.626;7.530;2023-11-19T14:06:52;11.80;99.90
13203;DHT22;6666;51.626;7.530;2023-11-19T14:09:22;11.70;99.90
13203;DHT22;6666;51.626;7.530;2023-11-19T14:11:50;11.70;99.90
13203;DHT22;6666;51.626;7.530;2023-11-19T14:14:18;11.60;99.90
13203;DHT22;6666;51.626;7.530;2023-11-19T14:16:47;11.60;99.90
13203;DHT22;6666;51.626;7.530;2023-11-19T14:19:15;11.60;99.90
13203;DHT22;6666;51.626;7.530;2023-11-19T14:21:44;11.70;99.90
13203;DHT22;6666;51.626;7.530;2023-11-19T14:24:14;11.80;99.90
13203;DHT22;6666;51.626;7.530;2023-11-19T14:26:42;11.70;99.90
13203;DHT22;6666;51.626;7.530;2023-11-19T14:29:10;11.70;99.90
13203;DHT22;6666;51.626;7.530;2023-11-19T14:31:38;11.70;99.90
13203;DHT22;6666;51.626;7.530;2023-11-19T14:34:07;11.80;99.90
13203;DHT22;6666;51.626;7.530;2023-11-19T14:36:35;11.80;99.90
13203;DHT22;6666;51.626;7.530;2023-11-19T14:39:04;11.80;99.90
13203;DHT22;6666;51.626;7.530;2023-11-19T14:41:34;11.80;99.90
13203;DHT22;6666;51.626;7.530;2023-11-19T14:44:02;11.80;99.90
13203;DHT22;6666;51.626;7.530;2023-11-19T14:46:30;11.80;99.90
13203;DHT22;6666;51.626;7.530;2023-11-19T14:48:58;11.80;99.90
13203;DHT22;6666;51.626;7.530;2023-11-19T14:51:27;11.80;99.90
13203;DHT22;6666;51.626;7.530;2023-11-19T14:53:55;11.70;99.90
13203;DHT22;6666;51.626;7.530;2023-11-19T14:56:24;11.80;99.90
13203;DHT22;6666;51.626;7.530;2023-11-19T14:58:53;11.80;99.90
13203;DHT22;6666;51.626;7.530;2023-11-19T15:01:21;11.70;99.90
13203;DHT22;6666;51.626;7.530;2023-11-19T15:03:50;11.60;99.90
13203;DHT22;6666;51.626;7.530;2023-11-19T15:06:23;11.60;99.90
13203;DHT22;6666;51.626;7.530;2023-11-19T15:08:53;11.60;99.90
13203;DHT22;6666;51.626;7.530;2023-11-19T15:11:21;11.50;99.90
13203;DHT22;6666;51.626;7.530;2023-11-19T15:13:50;11.50;99.90
13203;DHT22;6666;51.626;7.530;2023-11-19T15:16:19;11.40;99.90
13203;DHT22;6666;51.626;7.530;2023-11-19T15:18:52;11.40;99.90
13203;DHT22;6666;51.626;7.530;2023-11-19T15:21:21;11.40;99.90
13203;DHT22;6666;51.626;7.530;2023-11-19T15:23:49;11.30;99.90
13203;DHT22;6666;51.626;7.530;2023-11-19T15:26:17;11.40;99.90
13203;DHT22;6666;51.626;7.530;2023-11-19T15:28:46;11.40;99.90
13203;DHT22;6666;51.626;7.530;2023-11-19T15:31:15;11.40;99.90
13203;DHT22;6666;51.626;7.530;2023-11-19T15:33:43;11.30;99.90
13203;DHT22;6666;51.626;7.530;2023-11-19T15:36:13;11.30;99.90
13203;DHT22;6666;51.626;7.530;2023-11-19T15:38:42;11.30;99.90
13203;DHT22;6666;51.626;7.530;2023-11-19T15:41:13;11.40;99.90
13203;DHT22;6666;51.626;7.530;2023-11-19T15:43:41;11.40;99.90
13203;DHT22;6666;51.626;7.530;2023-11-19T15:46:09;11.40;99.90
13203;DHT22;6666;51.626;7.530;2023-11-19T15:48:39;11.50;99.90
13203;DHT22;6666;51.626;7.530;2023-11-19T15:51:08;11.50;99.90
13203;DHT22;6666;51.626;7.530;2023-11-19T15:53:36;11.50;99.90
13203;DHT22;6666;51.626;7.530;2023-11-19T15:56:05;11.50;99.90
13203;DHT22;6666;51.626;7.530;2023-11-19T15:58:33;11.50;99.90
13203;DHT22;6666;51.626;7.530;2023-11-19T16:01:02;11.40;99.90